sensor_id;sensor_type;location;lat;lon;timestamp;P1;durP1;ratioP1;P2;durP2;ratioP2
59922;SDS011;45778;51.142;3.732;2023-03-01T00:02:07;10.20;;;6.78;;
59922;SDS011;45778;51.142;3.732;2023-03-01T00:04:33;13.30;;;7.68;;
59922;SDS011;45778;51.142;3.732;2023-03-01T00:07:00;8.30;;;6.65;;
59922;SDS011;45778;51.142;3.732;2023-03-01T00:09:26;13.73;;;7.15;;
59922;SDS011;45778;51.142;3.732;2023-03-01T00:11:52;13.93;;;8.05;;
59922;SDS011;45778;51.142;3.732;2023-03-01T00:14:17;14.48;;;8.00;;
59922;SDS011;45778;51.142;3.732;2023-03-01T00:16:43;11.07;;;7.35;;
59922;SDS011;45778;51.142;3.732;2023-03-01T00:19:11;9.07;;;6.68;;
59922;SDS011;45778;51.142;3.732;2023-03-01T00:21:39;10.82;;;7.65;;
59922;SDS011;45778;51.142;3.732;2023-03-01T00:24:05;10.63;;;7.00;;
59922;SDS011;45778;51.142;3.732;2023-03-01T00:26:32;9.02;;;6.70;;
59922;SDS011;45778;51.142;3.732;2023-03-01T00:28:58;11.40;;;7.43;;
59922;SDS011;45778;51.142;3.732;2023-03-01T00:31:25;12.15;;;7.05;;
59922;SDS011;45778;51.142;3.732;2023-03-01T00:33:53;10.00;;;7.25;;
59922;SDS011;45778;51.142;3.732;2023-03-01T00:36:22;10.90;;;7.07;;
59922;SDS011;45778;51.142;3.732;2023-03-01T00:38:49;12.40;;;7.00;;
59922;SDS011;45778;51.142;3.732;2023-03-01T00:41:16;11.55;;;7.47;;
59922;SDS011;45778;51.142;3.732;2023-03-01T00:43:44;10.55;;;7.43;;
59922;SDS011;45778;51.142;3.732;2023-03-01T00:46:11;12.73;;;7.93;;
59922;SDS011;45778;51.142;3.732;2023-03-01T00:48:41;10.77;;;7.97;;
59922;SDS011;45778;51.142;3.732;2023-03-01T00:51:18;11.63;;;8.07;;
59922;SDS011;45778;51.142;3.732;2023-03-01T00:53:46;13.70;;;8.10;;
59922;SDS011;45778;51.142;3.732;2023-03-01T00:56:13;14.55;;;8.35;;
59922;SDS011;45778;51.142;3.732;2023-03-01T00:58:39;14.70;;;9.07;;
59922;SDS011;45778;51.142;3.732;2023-03-01T01:01:47;13.57;;;9.10;;
59922;SDS011;45778;51.142;3.732;2023-03-01T01:03:56;12.45;;;8.75;;
59922;SDS011;45778;51.142;3.732;2023-03-01T01:06:30;13.98;;;9.20;;
59922;SDS011;45778;51.142;3.732;2023-03-01T01:09:04;13.00;;;8.93;;
59922;SDS011;45778;51.142;3.732;2023-03-01T01:11:31;14.10;;;9.00;;
59922;SDS011;45778;51.142;3.732;2023-03-01T01:13:57;12.45;;;9.65;;
59922;SDS011;45778;51.142;3.732;2023-03-01T01:16:24;14.57;;;9.02;;
59922;SDS011;45778;51.142;3.732;2023-03-01T01:18:51;13.35;;;9.73;;
59922;SDS011;45778;51.142;3.732;2023-03-01T01:21:18;16.45;;;9.48;;
59922;SDS011;45778;51.142;3.732;2023-03-01T01:23:46;13.82;;;8.57;;
59922;SDS011;45778;51.142;3.732;2023-03-01T01:26:14;17.80;;;9.27;;
59922;SDS011;45778;51.142;3.732;2023-03-01T01:28:44;16.70;;;10.63;;
59922;SDS011;45778;51.142;3.732;2023-03-01T01:31:10;14.45;;;10.57;;
59922;SDS011;45778;51.142;3.732;2023-03-01T01:33:36;15.60;;;10.40;;
59922;SDS011;45778;51.142;3.732;2023-03-01T01:36:03;20.90;;;10.68;;
59922;SDS011;45778;51.142;3.732;2023-03-01T01:38:29;14.32;;;9.63;;
59922;SDS011;45778;51.142;3.732;2023-03-01T01:40:55;17.83;;;11.15;;
59922;SDS011;45778;51.142;3.732;2023-03-01T01:43:25;16.10;;;10.50;;
59922;SDS011;45778;51.142;3.732;2023-03-01T01:46:01;18.15;;;10.68;;
59922;SDS011;45778;51.142;3.732;2023-03-01T01:48:39;20.05;;;10.57;;
59922;SDS011;45778;51.142;3.732;2023-03-01T01:51:18;17.48;;;10.95;;
59922;SDS011;45778;51.142;3.732;2023-03-01T01:53:48;17.23;;;10.60;;
59922;SDS011;45778;51.142;3.732;2023-03-01T01:56:18;20.30;;;11.10;;
59922;SDS011;45778;51.142;3.732;2023-03-01T01:58:45;16.70;;;11.30;;
59922;SDS011;45778;51.142;3.732;2023-03-01T02:01:12;16.95;;;11.77;;
59922;SDS011;45778;51.142;3.732;2023-03-01T02:03:38;17.20;;;11.85;;
59922;SDS011;45778;51.142;3.732;2023-03-01T02:06:12;16.88;;;11.80;;
59922;SDS011;45778;51.142;3.732;2023-03-01T02:09:00;17.52;;;10.90;;
59922;SDS011;45778;51.142;3.732;2023-03-01T02:11:29;17.67;;;12.07;;
59922;SDS011;45778;51.142;3.732;2023-03-01T02:13:56;18.70;;;12.00;;
59922;SDS011;45778;51.142;3.732;2023-03-01T02:16:22;17.08;;;11.82;;
59922;SDS011;45778;51.142;3.732;2023-03-01T02:18:48;16.85;;;11.75;;
59922;SDS011;45778;51.142;3.732;2023-03-01T02:21:35;17.55;;;11.77;;
59922;SDS011;45778;51.142;3.732;2023-03-01T02:24:07;19.45;;;11.90;;
59922;SDS011;45778;51.142;3.732;2023-03-01T02:26:56;18.75;;;12.15;;
59922;SDS011;45778;51.142;3.732;2023-03-01T02:29:23;20.27;;;12.48;;
59922;SDS011;45778;51.142;3.732;2023-03-01T02:31:49;18.02;;;12.73;;
59922;SDS011;45778;51.142;3.732;2023-03-01T02:34:21;19.63;;;12.70;;
59922;SDS011;45778;51.142;3.732;2023-03-01T02:39:31;20.02;;;12.90;;
59922;SDS011;45778;51.142;3.732;2023-03-01T02:42:01;20.58;;;12.70;;
59922;SDS011;45778;51.142;3.732;2023-03-01T02:44:29;22.42;;;14.45;;
59922;SDS011;45778;51.142;3.732;2023-03-01T02:46:55;19.73;;;13.27;;
59922;SDS011;45778;51.142;3.732;2023-03-01T02:49:27;23.50;;;14.18;;
59922;SDS011;45778;51.142;3.732;2023-03-01T02:57:09;25.80;;;14.75;;
59922;SDS011;45778;51.142;3.732;2023-03-01T02:59:35;29.17;;;15.88;;
59922;SDS011;45778;51.142;3.732;2023-03-01T03:02:07;28.08;;;15.80;;
59922;SDS011;45778;51.142;3.732;2023-03-01T03:04:45;25.92;;;15.75;;
59922;SDS011;45778;51.142;3.732;2023-03-01T03:07:11;27.77;;;16.27;;
59922;SDS011;45778;51.142;3.732;2023-03-01T03:09:37;29.50;;;17.33;;
59922;SDS011;45778;51.142;3.732;2023-03-01T03:12:03;26.10;;;16.70;;
59922;SDS011;45778;51.142;3.732;2023-03-01T03:14:28;30.45;;;16.27;;
59922;SDS011;45778;51.142;3.732;2023-03-01T03:16:54;29.80;;;16.85;;
59922;SDS011;45778;51.142;3.732;2023-03-01T03:19:20;28.88;;;16.75;;
59922;SDS011;45778;51.142;3.732;2023-03-01T03:21:46;30.02;;;17.38;;
59922;SDS011;45778;51.142;3.732;2023-03-01T03:24:12;31.15;;;17.05;;
59922;SDS011;45778;51.142;3.732;2023-03-01T03:26:37;29.75;;;16.70;;
59922;SDS011;45778;51.142;3.732;2023-03-01T03:29:03;29.48;;;17.63;;
59922;SDS011;45778;51.142;3.732;2023-03-01T03:31:29;31.15;;;17.48;;
59922;SDS011;45778;51.142;3.732;2023-03-01T03:33:54;27.35;;;16.95;;
59922;SDS011;45778;51.142;3.732;2023-03-01T03:36:22;28.98;;;17.23;;
59922;SDS011;45778;51.142;3.732;2023-03-01T03:38:48;28.40;;;17.27;;
59922;SDS011;45778;51.142;3.732;2023-03-01T03:41:15;28.75;;;16.75;;
59922;SDS011;45778;51.142;3.732;2023-03-01T03:43:42;27.80;;;16.10;;
59922;SDS011;45778;51.142;3.732;2023-03-01T03:46:09;30.05;;;17.27;;
59922;SDS011;45778;51.142;3.732;2023-03-01T03:48:37;30.38;;;16.92;;
59922;SDS011;45778;51.142;3.732;2023-03-01T03:51:04;29.42;;;17.55;;
59922;SDS011;45778;51.142;3.732;2023-03-01T03:53:30;27.77;;;16.70;;
59922;SDS011;45778;51.142;3.732;2023-03-01T03:55:56;28.73;;;17.20;;
59922;SDS011;45778;51.142;3.732;2023-03-01T03:58:23;27.08;;;16.77;;
59922;SDS011;45778;51.142;3.732;2023-03-01T04:00:54;31.55;;;18.38;;
59922;SDS011;45778;51.142;3.732;2023-03-01T04:03:21;30.88;;;17.77;;
59922;SDS011;45778;51.142;3.732;2023-03-01T04:05:49;28.10;;;17.17;;
59922;SDS011;45778;51.142;3.732;2023-03-01T04:08:21;32.80;;;18.88;;
59922;SDS011;45778;51.142;3.732;2023-03-01T04:10:51;28.92;;;17.15;;
59922;SDS011;45778;51.142;3.732;2023-03-01T04:13:22;31.52;;;17.60;;
59922;SDS011;45778;51.142;3.732;2023-03-01T04:15:50;28.35;;;17.10;;
59922;SDS011;45778;51.142;3.732;2023-03-01T04:18:18;36.42;;;17.35;;
59922;SDS011;45778;51.142;3.732;2023-03-01T04:20:45;26.67;;;17.75;;
59922;SDS011;45778;51.142;3.732;2023-03-01T04:23:15;25.75;;;15.07;;
59922;SDS011;45778;51.142;3.732;2023-03-01T04:25:46;24.13;;;14.93;;
59922;SDS011;45778;51.142;3.732;2023-03-01T04:28:27;25.70;;;14.38;;
59922;SDS011;45778;51.142;3.732;2023-03-01T04:30:53;22.08;;;14.50;;
59922;SDS011;45778;51.142;3.732;2023-03-01T04:33:21;23.30;;;13.55;;
59922;SDS011;45778;51.142;3.732;2023-03-01T04:35:48;21.77;;;14.02;;
59922;SDS011;45778;51.142;3.732;2023-03-01T04:38:19;25.98;;;14.52;;
59922;SDS011;45778;51.142;3.732;2023-03-01T04:40:46;23.48;;;14.07;;
59922;SDS011;45778;51.142;3.732;2023-03-01T04:43:12;22.58;;;14.43;;
59922;SDS011;45778;51.142;3.732;2023-03-01T04:45:41;26.38;;;15.25;;
59922;SDS011;45778;51.142;3.732;2023-03-01T04:48:07;25.92;;;15.27;;
59922;SDS011;45778;51.142;3.732;2023-03-01T04:50:33;25.90;;;15.27;;
59922;SDS011;45778;51.142;3.732;2023-03-01T04:52:59;28.63;;;16.63;;
59922;SDS011;45778;51.142;3.732;2023-03-01T04:55:26;25.25;;;15.32;;
59922;SDS011;45778;51.142;3.732;2023-03-01T04:57:52;29.13;;;17.27;;
59922;SDS011;45778;51.142;3.732;2023-03-01T05:00:19;29.77;;;17.63;;
59922;SDS011;45778;51.142;3.732;2023-03-01T05:02:52;27.67;;;17.05;;
59922;SDS011;45778;51.142;3.732;2023-03-01T05:05:21;24.23;;;15.55;;
59922;SDS011;45778;51.142;3.732;2023-03-01T05:07:50;27.67;;;17.10;;
59922;SDS011;45778;51.142;3.732;2023-03-01T05:10:20;26.83;;;16.25;;
59922;SDS011;45778;51.142;3.732;2023-03-01T05:12:46;26.27;;;16.52;;
59922;SDS011;45778;51.142;3.732;2023-03-01T05:15:12;28.25;;;16.42;;
59922;SDS011;45778;51.142;3.732;2023-03-01T05:17:38;26.67;;;15.63;;
59922;SDS011;45778;51.142;3.732;2023-03-01T05:20:03;30.95;;;15.70;;
59922;SDS011;45778;51.142;3.732;2023-03-01T05:22:33;25.10;;;15.38;;
59922;SDS011;45778;51.142;3.732;2023-03-01T05:25:00;24.48;;;15.23;;
59922;SDS011;45778;51.142;3.732;2023-03-01T05:27:27;29.40;;;16.17;;
59922;SDS011;45778;51.142;3.732;2023-03-01T05:29:52;24.60;;;15.23;;
59922;SDS011;45778;51.142;3.732;2023-03-01T05:32:18;21.85;;;14.60;;
59922;SDS011;45778;51.142;3.732;2023-03-01T05:34:44;23.70;;;14.95;;
59922;SDS011;45778;51.142;3.732;2023-03-01T05:37:11;22.73;;;15.02;;
59922;SDS011;45778;51.142;3.732;2023-03-01T05:39:37;25.60;;;15.38;;
59922;SDS011;45778;51.142;3.732;2023-03-01T05:42:03;22.98;;;14.73;;
59922;SDS011;45778;51.142;3.732;2023-03-01T05:44:29;37.95;;;17.20;;
59922;SDS011;45778;51.142;3.732;2023-03-01T05:46:55;22.77;;;14.30;;
59922;SDS011;45778;51.142;3.732;2023-03-01T05:49:21;20.25;;;13.80;;
59922;SDS011;45778;51.142;3.732;2023-03-01T05:51:51;23.50;;;14.32;;
59922;SDS011;45778;51.142;3.732;2023-03-01T05:54:18;26.90;;;13.82;;
59922;SDS011;45778;51.142;3.732;2023-03-01T05:56:46;27.52;;;16.90;;
59922;SDS011;45778;51.142;3.732;2023-03-01T05:59:12;22.10;;;14.88;;
59922;SDS011;45778;51.142;3.732;2023-03-01T06:01:38;23.65;;;14.32;;
59922;SDS011;45778;51.142;3.732;2023-03-01T06:04:04;23.52;;;15.25;;
59922;SDS011;45778;51.142;3.732;2023-03-01T06:06:34;25.17;;;16.23;;
59922;SDS011;45778;51.142;3.732;2023-03-01T06:09:02;30.73;;;16.88;;
59922;SDS011;45778;51.142;3.732;2023-03-01T06:11:28;29.20;;;16.85;;
59922;SDS011;45778;51.142;3.732;2023-03-01T06:13:54;28.80;;;16.52;;
59922;SDS011;45778;51.142;3.732;2023-03-01T06:16:20;24.45;;;16.80;;
59922;SDS011;45778;51.142;3.732;2023-03-01T06:18:45;26.92;;;16.80;;
59922;SDS011;45778;51.142;3.732;2023-03-01T06:21:11;24.63;;;14.40;;
59922;SDS011;45778;51.142;3.732;2023-03-01T06:23:37;27.77;;;17.40;;
59922;SDS011;45778;51.142;3.732;2023-03-01T06:26:06;27.25;;;16.45;;
59922;SDS011;45778;51.142;3.732;2023-03-01T06:28:32;30.75;;;15.57;;
59922;SDS011;45778;51.142;3.732;2023-03-01T06:30:58;27.50;;;15.38;;
59922;SDS011;45778;51.142;3.732;2023-03-01T06:33:24;31.95;;;15.82;;
59922;SDS011;45778;51.142;3.732;2023-03-01T06:35:50;29.23;;;14.75;;
59922;SDS011;45778;51.142;3.732;2023-03-01T06:38:16;30.23;;;14.95;;
59922;SDS011;45778;51.142;3.732;2023-03-01T06:40:43;28.60;;;15.65;;
59922;SDS011;45778;51.142;3.732;2023-03-01T06:43:09;28.83;;;16.13;;
59922;SDS011;45778;51.142;3.732;2023-03-01T06:45:36;28.92;;;16.08;;
59922;SDS011;45778;51.142;3.732;2023-03-01T06:48:05;29.20;;;16.15;;
59922;SDS011;45778;51.142;3.732;2023-03-01T06:50:32;32.15;;;16.17;;
59922;SDS011;45778;51.142;3.732;2023-03-01T06:52:59;29.60;;;16.80;;
59922;SDS011;45778;51.142;3.732;2023-03-01T06:55:25;28.83;;;14.95;;
59922;SDS011;45778;51.142;3.732;2023-03-01T06:57:55;27.65;;;16.33;;
59922;SDS011;45778;51.142;3.732;2023-03-01T07:00:21;26.73;;;16.10;;
59922;SDS011;45778;51.142;3.732;2023-03-01T07:02:47;30.17;;;17.88;;
59922;SDS011;45778;51.142;3.732;2023-03-01T07:05:13;24.67;;;15.00;;
59922;SDS011;45778;51.142;3.732;2023-03-01T07:07:39;25.42;;;15.45;;
59922;SDS011;45778;51.142;3.732;2023-03-01T07:10:04;25.98;;;16.42;;
59922;SDS011;45778;51.142;3.732;2023-03-01T07:12:31;25.67;;;14.25;;
59922;SDS011;45778;51.142;3.732;2023-03-01T07:14:57;23.38;;;14.13;;
59922;SDS011;45778;51.142;3.732;2023-03-01T07:17:22;25.95;;;14.95;;
59922;SDS011;45778;51.142;3.732;2023-03-01T07:19:48;25.98;;;14.65;;
59922;SDS011;45778;51.142;3.732;2023-03-01T07:22:14;22.02;;;13.93;;
59922;SDS011;45778;51.142;3.732;2023-03-01T07:24:40;31.52;;;15.02;;
59922;SDS011;45778;51.142;3.732;2023-03-01T07:27:06;26.73;;;14.40;;
59922;SDS011;45778;51.142;3.732;2023-03-01T07:29:32;25.23;;;15.48;;
59922;SDS011;45778;51.142;3.732;2023-03-01T07:31:58;22.30;;;13.88;;
59922;SDS011;45778;51.142;3.732;2023-03-01T07:34:24;20.13;;;13.00;;
59922;SDS011;45778;51.142;3.732;2023-03-01T07:36:49;21.23;;;13.43;;
59922;SDS011;45778;51.142;3.732;2023-03-01T07:39:15;26.73;;;14.63;;
59922;SDS011;45778;51.142;3.732;2023-03-01T07:41:41;23.15;;;12.93;;
59922;SDS011;45778;51.142;3.732;2023-03-01T07:44:06;19.98;;;12.60;;
59922;SDS011;45778;51.142;3.732;2023-03-01T07:46:32;22.23;;;12.88;;
59922;SDS011;45778;51.142;3.732;2023-03-01T07:48:58;19.73;;;12.43;;
59922;SDS011;45778;51.142;3.732;2023-03-01T07:51:24;22.27;;;12.27;;
59922;SDS011;45778;51.142;3.732;2023-03-01T07:53:49;16.92;;;11.32;;
59922;SDS011;45778;51.142;3.732;2023-03-01T07:56:15;18.23;;;11.27;;
59922;SDS011;45778;51.142;3.732;2023-03-01T07:58:43;17.17;;;11.48;;
59922;SDS011;45778;51.142;3.732;2023-03-01T08:01:13;21.63;;;12.75;;
59922;SDS011;45778;51.142;3.732;2023-03-01T08:03:41;26.50;;;14.77;;
59922;SDS011;45778;51.142;3.732;2023-03-01T08:06:08;23.13;;;12.30;;
59922;SDS011;45778;51.142;3.732;2023-03-01T08:08:35;47.58;;;20.83;;
59922;SDS011;45778;51.142;3.732;2023-03-01T08:11:02;25.52;;;15.55;;
59922;SDS011;45778;51.142;3.732;2023-03-01T08:13:29;18.73;;;12.30;;
59922;SDS011;45778;51.142;3.732;2023-03-01T08:16:05;15.20;;;10.38;;
59922;SDS011;45778;51.142;3.732;2023-03-01T08:18:32;15.25;;;11.05;;
59922;SDS011;45778;51.142;3.732;2023-03-01T08:21:05;15.40;;;9.85;;
59922;SDS011;45778;51.142;3.732;2023-03-01T08:23:32;17.15;;;10.95;;
59922;SDS011;45778;51.142;3.732;2023-03-01T08:26:05;18.80;;;10.32;;
59922;SDS011;45778;51.142;3.732;2023-03-01T08:28:32;15.98;;;10.13;;
59922;SDS011;45778;51.142;3.732;2023-03-01T08:30:58;15.70;;;9.35;;
59922;SDS011;45778;51.142;3.732;2023-03-01T08:33:24;20.30;;;10.15;;
59922;SDS011;45778;51.142;3.732;2023-03-01T08:35:50;16.27;;;9.00;;
59922;SDS011;45778;51.142;3.732;2023-03-01T08:38:15;15.90;;;8.43;;
59922;SDS011;45778;51.142;3.732;2023-03-01T08:40:41;12.07;;;8.57;;
59922;SDS011;45778;51.142;3.732;2023-03-01T08:43:07;14.15;;;8.70;;
59922;SDS011;45778;51.142;3.732;2023-03-01T08:45:32;13.43;;;8.15;;
59922;SDS011;45778;51.142;3.732;2023-03-01T08:47:58;14.45;;;8.15;;
59922;SDS011;45778;51.142;3.732;2023-03-01T08:50:24;14.90;;;8.13;;
59922;SDS011;45778;51.142;3.732;2023-03-01T08:52:50;14.48;;;9.02;;
59922;SDS011;45778;51.142;3.732;2023-03-01T08:55:16;18.10;;;9.20;;
59922;SDS011;45778;51.142;3.732;2023-03-01T08:57:42;13.65;;;7.88;;
59922;SDS011;45778;51.142;3.732;2023-03-01T09:00:09;12.77;;;8.45;;
59922;SDS011;45778;51.142;3.732;2023-03-01T09:02:36;12.18;;;7.78;;
59922;SDS011;45778;51.142;3.732;2023-03-01T09:05:02;16.25;;;7.55;;
59922;SDS011;45778;51.142;3.732;2023-03-01T09:07:28;15.95;;;8.50;;
59922;SDS011;45778;51.142;3.732;2023-03-01T09:09:54;15.20;;;8.13;;
59922;SDS011;45778;51.142;3.732;2023-03-01T09:12:20;13.77;;;8.15;;
59922;SDS011;45778;51.142;3.732;2023-03-01T09:14:46;13.77;;;8.18;;
59922;SDS011;45778;51.142;3.732;2023-03-01T09:17:12;17.13;;;7.93;;
59922;SDS011;45778;51.142;3.732;2023-03-01T09:19:37;10.27;;;6.80;;
59922;SDS011;45778;51.142;3.732;2023-03-01T09:22:06;11.55;;;7.40;;
59922;SDS011;45778;51.142;3.732;2023-03-01T09:24:32;13.32;;;6.60;;
59922;SDS011;45778;51.142;3.732;2023-03-01T09:26:57;15.55;;;7.30;;
59922;SDS011;45778;51.142;3.732;2023-03-01T09:29:23;14.10;;;7.40;;
59922;SDS011;45778;51.142;3.732;2023-03-01T09:31:49;16.55;;;7.75;;
59922;SDS011;45778;51.142;3.732;2023-03-01T09:34:14;11.13;;;7.25;;
59922;SDS011;45778;51.142;3.732;2023-03-01T09:36:44;11.63;;;6.90;;
59922;SDS011;45778;51.142;3.732;2023-03-01T09:39:09;12.43;;;7.00;;
59922;SDS011;45778;51.142;3.732;2023-03-01T09:47:01;10.27;;;7.38;;
59922;SDS011;45778;51.142;3.732;2023-03-01T09:49:29;11.57;;;7.47;;
59922;SDS011;45778;51.142;3.732;2023-03-01T09:51:58;10.20;;;6.32;;
59922;SDS011;45778;51.142;3.732;2023-03-01T09:54:36;10.13;;;5.63;;
59922;SDS011;45778;51.142;3.732;2023-03-01T09:57:06;12.77;;;7.03;;
59922;SDS011;45778;51.142;3.732;2023-03-01T10:05:19;10.65;;;6.13;;
59922;SDS011;45778;51.142;3.732;2023-03-01T10:07:55;11.32;;;5.53;;
59922;SDS011;45778;51.142;3.732;2023-03-01T10:10:37;13.00;;;5.78;;
59922;SDS011;45778;51.142;3.732;2023-03-01T10:13:10;9.30;;;5.80;;
59922;SDS011;45778;51.142;3.732;2023-03-01T10:15:50;12.82;;;6.57;;
59922;SDS011;45778;51.142;3.732;2023-03-01T10:18:23;13.48;;;6.65;;
59922;SDS011;45778;51.142;3.732;2023-03-01T10:20:53;9.88;;;5.88;;
59922;SDS011;45778;51.142;3.732;2023-03-01T10:23:26;12.70;;;5.53;;
59922;SDS011;45778;51.142;3.732;2023-03-01T10:31:54;6.57;;;4.78;;
59922;SDS011;45778;51.142;3.732;2023-03-01T10:34:27;7.68;;;4.53;;
59922;SDS011;45778;51.142;3.732;2023-03-01T10:36:56;8.57;;;5.28;;
59922;SDS011;45778;51.142;3.732;2023-03-01T10:39:26;9.82;;;4.53;;
59922;SDS011;45778;51.142;3.732;2023-03-01T10:47:01;8.60;;;4.75;;
59922;SDS011;45778;51.142;3.732;2023-03-01T10:49:27;12.95;;;5.40;;
59922;SDS011;45778;51.142;3.732;2023-03-01T10:51:56;11.02;;;6.03;;
59922;SDS011;45778;51.142;3.732;2023-03-01T10:54:43;12.70;;;5.85;;
59922;SDS011;45778;51.142;3.732;2023-03-01T10:57:31;13.90;;;8.43;;
59922;SDS011;45778;51.142;3.732;2023-03-01T11:03:00;10.32;;;7.10;;
59922;SDS011;45778;51.142;3.732;2023-03-01T11:05:32;13.60;;;6.30;;
59922;SDS011;45778;51.142;3.732;2023-03-01T11:07:59;11.95;;;6.80;;
59922;SDS011;45778;51.142;3.732;2023-03-01T11:10:35;9.35;;;6.88;;
59922;SDS011;45778;51.142;3.732;2023-03-01T11:13:14;10.90;;;7.15;;
59922;SDS011;45778;51.142;3.732;2023-03-01T11:15:42;12.20;;;7.65;;
59922;SDS011;45778;51.142;3.732;2023-03-01T11:18:21;8.48;;;5.97;;
59922;SDS011;45778;51.142;3.732;2023-03-01T11:20:48;10.27;;;6.72;;
59922;SDS011;45778;51.142;3.732;2023-03-01T11:23:16;9.25;;;5.95;;
59922;SDS011;45778;51.142;3.732;2023-03-01T11:25:46;9.20;;;5.78;;
59922;SDS011;45778;51.142;3.732;2023-03-01T11:28:24;7.53;;;5.28;;
59922;SDS011;45778;51.142;3.732;2023-03-01T11:31:02;8.88;;;5.40;;
59922;SDS011;45778;51.142;3.732;2023-03-01T11:38:34;8.85;;;5.38;;
59922;SDS011;45778;51.142;3.732;2023-03-01T11:41:04;8.27;;;4.03;;
59922;SDS011;45778;51.142;3.732;2023-03-01T11:52:06;6.82;;;4.78;;
59922;SDS011;45778;51.142;3.732;2023-03-01T12:03:22;9.70;;;4.05;;
59922;SDS011;45778;51.142;3.732;2023-03-01T12:19:33;6.43;;;4.60;;
59922;SDS011;45778;51.142;3.732;2023-03-01T12:24:45;9.10;;;5.25;;
59922;SDS011;45778;51.142;3.732;2023-03-01T12:30:04;24.95;;;12.35;;
59922;SDS011;45778;51.142;3.732;2023-03-01T12:37:58;8.30;;;5.15;;
59922;SDS011;45778;51.142;3.732;2023-03-01T12:43:22;12.63;;;7.82;;
59922;SDS011;45778;51.142;3.732;2023-03-01T12:49:19;10.40;;;6.18;;
59922;SDS011;45778;51.142;3.732;2023-03-01T12:51:59;9.55;;;5.55;;
59922;SDS011;45778;51.142;3.732;2023-03-01T12:54:35;6.72;;;4.40;;
59922;SDS011;45778;51.142;3.732;2023-03-01T12:57:16;8.00;;;5.35;;
59922;SDS011;45778;51.142;3.732;2023-03-01T13:02:51;5.78;;;4.53;;
59922;SDS011;45778;51.142;3.732;2023-03-01T13:08:19;6.10;;;4.47;;
59922;SDS011;45778;51.142;3.732;2023-03-01T13:10:54;6.28;;;4.68;;
59922;SDS011;45778;51.142;3.732;2023-03-01T13:13:27;6.53;;;4.88;;
59922;SDS011;45778;51.142;3.732;2023-03-01T13:15:53;8.35;;;5.75;;
59922;SDS011;45778;51.142;3.732;2023-03-01T13:20:50;8.27;;;4.18;;
59922;SDS011;45778;51.142;3.732;2023-03-01T13:31:00;6.30;;;4.65;;
59922;SDS011;45778;51.142;3.732;2023-03-01T13:35:56;6.25;;;5.05;;
59922;SDS011;45778;51.142;3.732;2023-03-01T13:41:11;6.05;;;4.57;;
59922;SDS011;45778;51.142;3.732;2023-03-01T13:43:41;6.85;;;4.97;;
59922;SDS011;45778;51.142;3.732;2023-03-01T13:46:15;6.88;;;4.60;;
59922;SDS011;45778;51.142;3.732;2023-03-01T13:48:45;7.07;;;4.47;;
59922;SDS011;45778;51.142;3.732;2023-03-01T13:51:15;5.55;;;4.85;;
59922;SDS011;45778;51.142;3.732;2023-03-01T13:53:49;6.50;;;5.13;;
59922;SDS011;45778;51.142;3.732;2023-03-01T13:59:02;8.02;;;4.95;;
59922;SDS011;45778;51.142;3.732;2023-03-01T14:01:32;7.65;;;5.30;;
59922;SDS011;45778;51.142;3.732;2023-03-01T14:04:01;11.63;;;8.30;;
59922;SDS011;45778;51.142;3.732;2023-03-01T14:06:29;7.78;;;4.53;;
59922;SDS011;45778;51.142;3.732;2023-03-01T14:09:01;5.32;;;4.63;;
59922;SDS011;45778;51.142;3.732;2023-03-01T14:19:48;4.90;;;4.38;;
59922;SDS011;45778;51.142;3.732;2023-03-01T14:22:22;8.27;;;4.63;;
59922;SDS011;45778;51.142;3.732;2023-03-01T14:24:59;7.93;;;4.70;;
59922;SDS011;45778;51.142;3.732;2023-03-01T14:27:38;44.45;;;29.52;;
59922;SDS011;45778;51.142;3.732;2023-03-01T14:30:19;5.90;;;4.45;;
59922;SDS011;45778;51.142;3.732;2023-03-01T14:32:53;6.28;;;4.35;;
59922;SDS011;45778;51.142;3.732;2023-03-01T14:35:24;6.07;;;4.40;;
59922;SDS011;45778;51.142;3.732;2023-03-01T14:37:52;5.30;;;4.68;;
59922;SDS011;45778;51.142;3.732;2023-03-01T14:40:22;5.82;;;4.30;;
59922;SDS011;45778;51.142;3.732;2023-03-01T14:42:57;6.70;;;4.60;;
59922;SDS011;45778;51.142;3.732;2023-03-01T14:45:26;6.88;;;4.68;;
59922;SDS011;45778;51.142;3.732;2023-03-01T14:47:54;5.15;;;4.60;;
59922;SDS011;45778;51.142;3.732;2023-03-01T14:50:27;8.15;;;4.53;;
59922;SDS011;45778;51.142;3.732;2023-03-01T14:52:59;6.43;;;4.60;;
59922;SDS011;45778;51.142;3.732;2023-03-01T14:55:31;7.07;;;5.05;;
59922;SDS011;45778;51.142;3.732;2023-03-01T14:58:02;8.13;;;6.00;;
59922;SDS011;45778;51.142;3.732;2023-03-01T15:00:30;8.63;;;5.43;;
59922;SDS011;45778;51.142;3.732;2023-03-01T15:03:00;8.07;;;4.95;;
59922;SDS011;45778;51.142;3.732;2023-03-01T15:05:38;9.07;;;5.18;;
59922;SDS011;45778;51.142;3.732;2023-03-01T15:08:05;9.13;;;5.18;;
59922;SDS011;45778;51.142;3.732;2023-03-01T15:10:33;7.57;;;5.03;;
59922;SDS011;45778;51.142;3.732;2023-03-01T15:13:10;7.15;;;4.43;;
59922;SDS011;45778;51.142;3.732;2023-03-01T15:15:38;13.80;;;7.65;;
59922;SDS011;45778;51.142;3.732;2023-03-01T15:20:44;9.02;;;5.38;;
59922;SDS011;45778;51.142;3.732;2023-03-01T15:25:44;10.27;;;5.32;;
59922;SDS011;45778;51.142;3.732;2023-03-01T15:28:12;7.78;;;4.90;;
59922;SDS011;45778;51.142;3.732;2023-03-01T15:30:44;7.45;;;5.60;;
59922;SDS011;45778;51.142;3.732;2023-03-01T15:35:51;7.95;;;6.43;;
59922;SDS011;45778;51.142;3.732;2023-03-01T15:43:56;10.68;;;6.40;;
59922;SDS011;45778;51.142;3.732;2023-03-01T15:46:24;9.85;;;7.72;;
59922;SDS011;45778;51.142;3.732;2023-03-01T15:48:54;7.20;;;5.45;;
59922;SDS011;45778;51.142;3.732;2023-03-01T15:51:22;7.55;;;6.32;;
59922;SDS011;45778;51.142;3.732;2023-03-01T15:53:54;10.70;;;8.27;;
59922;SDS011;45778;51.142;3.732;2023-03-01T15:56:20;14.43;;;9.60;;
59922;SDS011;45778;51.142;3.732;2023-03-01T15:58:46;13.77;;;9.38;;
59922;SDS011;45778;51.142;3.732;2023-03-01T16:01:15;10.32;;;7.45;;
59922;SDS011;45778;51.142;3.732;2023-03-01T16:03:42;10.95;;;6.20;;
59922;SDS011;45778;51.142;3.732;2023-03-01T16:06:09;7.97;;;6.25;;
59922;SDS011;45778;51.142;3.732;2023-03-01T16:08:35;9.00;;;6.82;;
59922;SDS011;45778;51.142;3.732;2023-03-01T16:11:02;11.63;;;8.02;;
59922;SDS011;45778;51.142;3.732;2023-03-01T16:13:30;10.15;;;5.93;;
59922;SDS011;45778;51.142;3.732;2023-03-01T16:15:57;7.78;;;6.47;;
59922;SDS011;45778;51.142;3.732;2023-03-01T16:18:23;10.10;;;6.43;;
59922;SDS011;45778;51.142;3.732;2023-03-01T16:20:49;8.32;;;6.63;;
59922;SDS011;45778;51.142;3.732;2023-03-01T16:23:15;11.63;;;8.35;;
59922;SDS011;45778;51.142;3.732;2023-03-01T16:25:40;9.40;;;6.50;;
59922;SDS011;45778;51.142;3.732;2023-03-01T16:28:06;11.98;;;6.07;;
59922;SDS011;45778;51.142;3.732;2023-03-01T16:30:38;10.32;;;6.20;;
59922;SDS011;45778;51.142;3.732;2023-03-01T16:33:04;9.13;;;6.50;;
59922;SDS011;45778;51.142;3.732;2023-03-01T16:35:32;8.77;;;6.38;;
59922;SDS011;45778;51.142;3.732;2023-03-01T16:37:59;9.07;;;7.38;;
59922;SDS011;45778;51.142;3.732;2023-03-01T16:40:26;9.15;;;6.53;;
59922;SDS011;45778;51.142;3.732;2023-03-01T16:42:53;8.88;;;6.28;;
59922;SDS011;45778;51.142;3.732;2023-03-01T16:45:24;12.75;;;9.43;;
59922;SDS011;45778;51.142;3.732;2023-03-01T16:47:50;47.65;;;26.90;;
59922;SDS011;45778;51.142;3.732;2023-03-01T16:50:16;13.40;;;9.45;;
59922;SDS011;45778;51.142;3.732;2023-03-01T16:52:42;10.90;;;6.85;;